sensor_id;sensor_type;location;lat;lon;timestamp;P1;durP1;ratioP1;P2;durP2;ratioP2
41263;SDS011;26998;48.714;9.414;2024-03-25T00:00:17;3.22;;;1.92;;
41263;SDS011;26998;48.714;9.414;2024-03-25T00:02:43;6.05;;;2.22;;
41263;SDS011;26998;48.714;9.414;2024-03-25T00:05:09;5.43;;;2.80;;
41263;SDS011;26998;48.714;9.414;2024-03-25T00:07:36;7.38;;;2.92;;
41263;SDS011;26998;48.714;9.414;2024-03-25T00:10:03;5.70;;;2.75;;
41263;SDS011;26998;48.714;9.414;2024-03-25T00:12:29;4.53;;;2.40;;
41263;SDS011;26998;48.714;9.414;2024-03-25T00:14:55;5.28;;;2.70;;
41263;SDS011;26998;48.714;9.414;2024-03-25T00:17:20;3.63;;;2.33;;
41263;SDS011;26998;48.714;9.414;2024-03-25T00:19:46;5.03;;;2.20;;
41263;SDS011;26998;48.714;9.414;2024-03-25T00:22:19;4.68;;;2.60;;
41263;SDS011;26998;48.714;9.414;2024-03-25T00:24:46;6.38;;;3.22;;
41263;SDS011;26998;48.714;9.414;2024-03-25T00:27:13;6.55;;;3.50;;
41263;SDS011;26998;48.714;9.414;2024-03-25T00:29:39;8.35;;;4.70;;
41263;SDS011;26998;48.714;9.414;2024-03-25T00:32:05;5.20;;;3.00;;
41263;SDS011;26998;48.714;9.414;2024-03-25T00:34:31;7.72;;;2.88;;
41263;SDS011;26998;48.714;9.414;2024-03-25T00:37:01;4.13;;;2.53;;
41263;SDS011;26998;48.714;9.414;2024-03-25T00:39:27;3.70;;;2.10;;
41263;SDS011;26998;48.714;9.414;2024-03-25T00:41:53;5.20;;;2.38;;
41263;SDS011;26998;48.714;9.414;2024-03-25T00:44:19;3.58;;;2.05;;
41263;SDS011;26998;48.714;9.414;2024-03-25T00:46:48;3.42;;;2.60;;
41263;SDS011;26998;48.714;9.414;2024-03-25T00:49:13;2.95;;;2.20;;
41263;SDS011;26998;48.714;9.414;2024-03-25T00:51:39;4.47;;;2.40;;
41263;SDS011;26998;48.714;9.414;2024-03-25T00:54:05;4.60;;;2.50;;
41263;SDS011;26998;48.714;9.414;2024-03-25T00:56:31;4.38;;;2.25;;
41263;SDS011;26998;48.714;9.414;2024-03-25T00:58:57;5.10;;;2.03;;
41263;SDS011;26998;48.714;9.414;2024-03-25T01:01:28;3.67;;;2.30;;
41263;SDS011;26998;48.714;9.414;2024-03-25T01:03:58;4.00;;;2.20;;
41263;SDS011;26998;48.714;9.414;2024-03-25T01:06:24;4.07;;;2.67;;
41263;SDS011;26998;48.714;9.414;2024-03-25T01:08:50;5.25;;;2.70;;
41263;SDS011;26998;48.714;9.414;2024-03-25T01:11:16;4.35;;;2.85;;
41263;SDS011;26998;48.714;9.414;2024-03-25T01:13:42;5.72;;;2.35;;
41263;SDS011;26998;48.714;9.414;2024-03-25T01:16:08;4.53;;;2.63;;
41263;SDS011;26998;48.714;9.414;2024-03-25T01:18:35;5.07;;;2.95;;
41263;SDS011;26998;48.714;9.414;2024-03-25T01:21:01;3.17;;;2.30;;
41263;SDS011;26998;48.714;9.414;2024-03-25T01:23:27;6.43;;;2.80;;
41263;SDS011;26998;48.714;9.414;2024-03-25T01:25:53;3.88;;;2.80;;
41263;SDS011;26998;48.714;9.414;2024-03-25T01:28:18;4.43;;;3.07;;
41263;SDS011;26998;48.714;9.414;2024-03-25T01:30:44;5.93;;;3.08;;
41263;SDS011;26998;48.714;9.414;2024-03-25T01:33:10;5.60;;;3.13;;
41263;SDS011;26998;48.714;9.414;2024-03-25T01:35:36;5.45;;;2.90;;
41263;SDS011;26998;48.714;9.414;2024-03-25T01:38:01;4.00;;;2.63;;
41263;SDS011;26998;48.714;9.414;2024-03-25T01:40:28;6.05;;;2.65;;
41263;SDS011;26998;48.714;9.414;2024-03-25T01:42:57;4.90;;;2.35;;
41263;SDS011;26998;48.714;9.414;2024-03-25T01:45:33;4.68;;;2.90;;
41263;SDS011;26998;48.714;9.414;2024-03-25T01:48:01;3.25;;;2.38;;
41263;SDS011;26998;48.714;9.414;2024-03-25T01:50:30;5.68;;;2.80;;
41263;SDS011;26998;48.714;9.414;2024-03-25T01:53:03;4.20;;;2.80;;
41263;SDS011;26998;48.714;9.414;2024-03-25T01:55:29;4.80;;;2.75;;
41263;SDS011;26998;48.714;9.414;2024-03-25T01:57:57;4.05;;;2.53;;
41263;SDS011;26998;48.714;9.414;2024-03-25T02:00:24;4.63;;;2.80;;
41263;SDS011;26998;48.714;9.414;2024-03-25T02:02:51;3.80;;;2.47;;
41263;SDS011;26998;48.714;9.414;2024-03-25T02:05:18;5.35;;;2.95;;
41263;SDS011;26998;48.714;9.414;2024-03-25T02:07:44;4.00;;;2.80;;
41263;SDS011;26998;48.714;9.414;2024-03-25T02:10:10;7.70;;;3.10;;
41263;SDS011;26998;48.714;9.414;2024-03-25T02:12:43;4.28;;;2.72;;
41263;SDS011;26998;48.714;9.414;2024-03-25T02:15:11;4.13;;;3.00;;
41263;SDS011;26998;48.714;9.414;2024-03-25T02:17:38;4.93;;;3.17;;
41263;SDS011;26998;48.714;9.414;2024-03-25T02:20:04;4.72;;;2.80;;
41263;SDS011;26998;48.714;9.414;2024-03-25T02:22:32;4.78;;;3.00;;
41263;SDS011;26998;48.714;9.414;2024-03-25T02:24:58;4.18;;;2.78;;
41263;SDS011;26998;48.714;9.414;2024-03-25T02:27:26;6.32;;;3.30;;
41263;SDS011;26998;48.714;9.414;2024-03-25T02:30:01;4.10;;;2.92;;
41263;SDS011;26998;48.714;9.414;2024-03-25T02:32:38;6.10;;;3.50;;
41263;SDS011;26998;48.714;9.414;2024-03-25T02:35:05;4.97;;;3.17;;
41263;SDS011;26998;48.714;9.414;2024-03-25T02:37:37;6.18;;;3.00;;
41263;SDS011;26998;48.714;9.414;2024-03-25T02:40:04;6.57;;;4.00;;
41263;SDS011;26998;48.714;9.414;2024-03-25T02:42:32;5.27;;;3.20;;
41263;SDS011;26998;48.714;9.414;2024-03-25T02:44:58;6.05;;;3.75;;
41263;SDS011;26998;48.714;9.414;2024-03-25T02:47:25;9.93;;;3.50;;
41263;SDS011;26998;48.714;9.414;2024-03-25T02:49:50;6.07;;;3.25;;
41263;SDS011;26998;48.714;9.414;2024-03-25T02:52:16;5.93;;;2.90;;
41263;SDS011;26998;48.714;9.414;2024-03-25T02:54:43;6.22;;;3.20;;
41263;SDS011;26998;48.714;9.414;2024-03-25T02:57:09;5.10;;;3.30;;
41263;SDS011;26998;48.714;9.414;2024-03-25T02:59:35;4.97;;;3.03;;
41263;SDS011;26998;48.714;9.414;2024-03-25T03:02:00;5.97;;;3.27;;
41263;SDS011;26998;48.714;9.414;2024-03-25T03:04:26;5.60;;;3.15;;
41263;SDS011;26998;48.714;9.414;2024-03-25T03:06:51;5.55;;;3.22;;
41263;SDS011;26998;48.714;9.414;2024-03-25T03:09:17;4.77;;;3.23;;
41263;SDS011;26998;48.714;9.414;2024-03-25T03:11:43;5.00;;;3.08;;
41263;SDS011;26998;48.714;9.414;2024-03-25T03:14:09;6.17;;;3.10;;
41263;SDS011;26998;48.714;9.414;2024-03-25T03:16:34;5.68;;;3.35;;
41263;SDS011;26998;48.714;9.414;2024-03-25T03:19:00;4.83;;;3.03;;
41263;SDS011;26998;48.714;9.414;2024-03-25T03:21:26;4.20;;;3.13;;
41263;SDS011;26998;48.714;9.414;2024-03-25T03:23:52;5.40;;;3.40;;
41263;SDS011;26998;48.714;9.414;2024-03-25T03:26:17;4.70;;;3.15;;
41263;SDS011;26998;48.714;9.414;2024-03-25T03:28:43;6.80;;;3.50;;
41263;SDS011;26998;48.714;9.414;2024-03-25T03:31:09;5.57;;;3.60;;
41263;SDS011;26998;48.714;9.414;2024-03-25T03:33:34;6.15;;;3.50;;
41263;SDS011;26998;48.714;9.414;2024-03-25T03:36:00;4.55;;;2.75;;
41263;SDS011;26998;48.714;9.414;2024-03-25T03:38:26;5.13;;;2.90;;
41263;SDS011;26998;48.714;9.414;2024-03-25T03:40:58;5.93;;;3.63;;
41263;SDS011;26998;48.714;9.414;2024-03-25T03:43:25;4.10;;;2.67;;
41263;SDS011;26998;48.714;9.414;2024-03-25T03:45:50;4.87;;;2.90;;
41263;SDS011;26998;48.714;9.414;2024-03-25T03:48:16;6.00;;;2.97;;
41263;SDS011;26998;48.714;9.414;2024-03-25T03:50:42;5.72;;;2.90;;
41263;SDS011;26998;48.714;9.414;2024-03-25T03:53:08;5.07;;;2.50;;
41263;SDS011;26998;48.714;9.414;2024-03-25T03:55:36;6.55;;;3.60;;
41263;SDS011;26998;48.714;9.414;2024-03-25T03:58:02;7.18;;;3.65;;
41263;SDS011;26998;48.714;9.414;2024-03-25T04:00:28;5.13;;;3.08;;
41263;SDS011;26998;48.714;9.414;2024-03-25T04:02:54;6.10;;;3.05;;
41263;SDS011;26998;48.714;9.414;2024-03-25T04:05:20;5.40;;;3.00;;
41263;SDS011;26998;48.714;9.414;2024-03-25T04:07:46;4.50;;;2.80;;
41263;SDS011;26998;48.714;9.414;2024-03-25T04:10:12;6.25;;;3.45;;
41263;SDS011;26998;48.714;9.414;2024-03-25T04:12:39;8.23;;;3.88;;
41263;SDS011;26998;48.714;9.414;2024-03-25T04:15:05;12.05;;;5.35;;
41263;SDS011;26998;48.714;9.414;2024-03-25T04:17:31;7.50;;;3.85;;
41263;SDS011;26998;48.714;9.414;2024-03-25T04:20:00;9.25;;;4.70;;
41263;SDS011;26998;48.714;9.414;2024-03-25T04:22:26;10.88;;;4.47;;
41263;SDS011;26998;48.714;9.414;2024-03-25T04:24:52;7.70;;;4.37;;
41263;SDS011;26998;48.714;9.414;2024-03-25T04:27:18;9.75;;;4.03;;
41263;SDS011;26998;48.714;9.414;2024-03-25T04:29:46;8.00;;;3.80;;
41263;SDS011;26998;48.714;9.414;2024-03-25T04:32:12;15.60;;;5.82;;
41263;SDS011;26998;48.714;9.414;2024-03-25T04:34:38;12.10;;;4.43;;
41263;SDS011;26998;48.714;9.414;2024-03-25T04:37:03;7.97;;;4.20;;
41263;SDS011;26998;48.714;9.414;2024-03-25T04:39:30;8.80;;;3.70;;
41263;SDS011;26998;48.714;9.414;2024-03-25T04:41:56;6.53;;;3.63;;
41263;SDS011;26998;48.714;9.414;2024-03-25T04:44:22;9.10;;;4.10;;
41263;SDS011;26998;48.714;9.414;2024-03-25T04:46:47;7.87;;;3.90;;
41263;SDS011;26998;48.714;9.414;2024-03-25T04:49:13;7.10;;;3.75;;
41263;SDS011;26998;48.714;9.414;2024-03-25T04:51:39;5.83;;;3.30;;
41263;SDS011;26998;48.714;9.414;2024-03-25T04:54:04;5.65;;;3.25;;
41263;SDS011;26998;48.714;9.414;2024-03-25T04:56:30;4.18;;;2.95;;
41263;SDS011;26998;48.714;9.414;2024-03-25T04:58:57;6.18;;;3.40;;
41263;SDS011;26998;48.714;9.414;2024-03-25T05:01:27;6.60;;;3.67;;
41263;SDS011;26998;48.714;9.414;2024-03-25T05:03:53;8.25;;;3.47;;
41263;SDS011;26998;48.714;9.414;2024-03-25T05:06:19;7.43;;;3.42;;
41263;SDS011;26998;48.714;9.414;2024-03-25T05:08:44;8.25;;;3.70;;
41263;SDS011;26998;48.714;9.414;2024-03-25T05:11:10;8.23;;;3.77;;
41263;SDS011;26998;48.714;9.414;2024-03-25T05:13:36;6.18;;;3.72;;
41263;SDS011;26998;48.714;9.414;2024-03-25T05:16:01;7.50;;;3.93;;
41263;SDS011;26998;48.714;9.414;2024-03-25T05:18:27;7.68;;;3.60;;
41263;SDS011;26998;48.714;9.414;2024-03-25T05:20:53;7.47;;;3.70;;
41263;SDS011;26998;48.714;9.414;2024-03-25T05:23:18;6.68;;;3.83;;
41263;SDS011;26998;48.714;9.414;2024-03-25T05:25:44;6.57;;;3.40;;
41263;SDS011;26998;48.714;9.414;2024-03-25T05:28:10;6.23;;;3.47;;
41263;SDS011;26998;48.714;9.414;2024-03-25T05:30:35;6.22;;;3.30;;
41263;SDS011;26998;48.714;9.414;2024-03-25T05:33:01;8.07;;;3.40;;
41263;SDS011;26998;48.714;9.414;2024-03-25T05:35:27;8.20;;;3.87;;
41263;SDS011;26998;48.714;9.414;2024-03-25T05:37:53;9.73;;;4.75;;
41263;SDS011;26998;48.714;9.414;2024-03-25T05:40:19;7.28;;;4.05;;
41263;SDS011;26998;48.714;9.414;2024-03-25T05:42:44;8.90;;;4.67;;
41263;SDS011;26998;48.714;9.414;2024-03-25T05:45:11;8.98;;;4.57;;
41263;SDS011;26998;48.714;9.414;2024-03-25T05:47:37;7.97;;;4.07;;
41263;SDS011;26998;48.714;9.414;2024-03-25T05:50:03;7.75;;;3.65;;
41263;SDS011;26998;48.714;9.414;2024-03-25T05:52:31;7.95;;;3.70;;
41263;SDS011;26998;48.714;9.414;2024-03-25T05:54:57;7.88;;;4.60;;
41263;SDS011;26998;48.714;9.414;2024-03-25T05:57:23;6.75;;;4.15;;
41263;SDS011;26998;48.714;9.414;2024-03-25T05:59:49;7.75;;;4.13;;
41263;SDS011;26998;48.714;9.414;2024-03-25T06:02:15;7.63;;;3.73;;
41263;SDS011;26998;48.714;9.414;2024-03-25T06:04:40;6.97;;;3.60;;
41263;SDS011;26998;48.714;9.414;2024-03-25T06:07:07;8.98;;;4.03;;
41263;SDS011;26998;48.714;9.414;2024-03-25T06:09:33;7.20;;;3.83;;
41263;SDS011;26998;48.714;9.414;2024-03-25T06:11:59;8.23;;;3.65;;
41263;SDS011;26998;48.714;9.414;2024-03-25T06:14:25;5.18;;;3.20;;
41263;SDS011;26998;48.714;9.414;2024-03-25T06:16:51;5.22;;;3.30;;
41263;SDS011;26998;48.714;9.414;2024-03-25T06:19:16;7.47;;;3.60;;
41263;SDS011;26998;48.714;9.414;2024-03-25T06:21:42;8.07;;;3.60;;
41263;SDS011;26998;48.714;9.414;2024-03-25T06:24:08;4.25;;;3.10;;
41263;SDS011;26998;48.714;9.414;2024-03-25T06:26:34;5.07;;;2.87;;
41263;SDS011;26998;48.714;9.414;2024-03-25T06:29:00;6.55;;;2.90;;
41263;SDS011;26998;48.714;9.414;2024-03-25T06:31:26;5.88;;;3.20;;
41263;SDS011;26998;48.714;9.414;2024-03-25T06:34:10;6.30;;;3.78;;
41263;SDS011;26998;48.714;9.414;2024-03-25T06:36:48;4.18;;;2.75;;
41263;SDS011;26998;48.714;9.414;2024-03-25T06:39:14;5.40;;;2.90;;
41263;SDS011;26998;48.714;9.414;2024-03-25T06:41:40;7.18;;;3.22;;
41263;SDS011;26998;48.714;9.414;2024-03-25T06:44:07;6.60;;;3.10;;
41263;SDS011;26998;48.714;9.414;2024-03-25T06:46:33;5.43;;;2.83;;
41263;SDS011;26998;48.714;9.414;2024-03-25T06:48:59;5.87;;;3.23;;
41263;SDS011;26998;48.714;9.414;2024-03-25T06:51:25;7.93;;;3.60;;
41263;SDS011;26998;48.714;9.414;2024-03-25T06:53:52;5.40;;;3.28;;
41263;SDS011;26998;48.714;9.414;2024-03-25T06:56:18;4.50;;;2.85;;
41263;SDS011;26998;48.714;9.414;2024-03-25T06:58:44;4.68;;;2.67;;
41263;SDS011;26998;48.714;9.414;2024-03-25T07:01:10;8.35;;;3.25;;
41263;SDS011;26998;48.714;9.414;2024-03-25T07:03:38;5.90;;;3.45;;
41263;SDS011;26998;48.714;9.414;2024-03-25T07:06:05;5.90;;;3.20;;
41263;SDS011;26998;48.714;9.414;2024-03-25T07:08:31;5.95;;;2.95;;
41263;SDS011;26998;48.714;9.414;2024-03-25T07:10:57;6.67;;;3.27;;
41263;SDS011;26998;48.714;9.414;2024-03-25T07:13:23;5.28;;;2.90;;
41263;SDS011;26998;48.714;9.414;2024-03-25T07:15:49;7.07;;;4.18;;
41263;SDS011;26998;48.714;9.414;2024-03-25T07:18:15;6.45;;;3.30;;
41263;SDS011;26998;48.714;9.414;2024-03-25T07:20:42;6.43;;;3.50;;
41263;SDS011;26998;48.714;9.414;2024-03-25T07:23:09;6.43;;;3.53;;
41263;SDS011;26998;48.714;9.414;2024-03-25T07:25:35;5.97;;;3.40;;
41263;SDS011;26998;48.714;9.414;2024-03-25T07:28:05;5.93;;;3.33;;
41263;SDS011;26998;48.714;9.414;2024-03-25T07:30:31;4.63;;;3.13;;
41263;SDS011;26998;48.714;9.414;2024-03-25T07:33:00;5.70;;;3.28;;
41263;SDS011;26998;48.714;9.414;2024-03-25T07:35:27;4.18;;;3.15;;
41263;SDS011;26998;48.714;9.414;2024-03-25T07:37:59;5.43;;;3.20;;
41263;SDS011;26998;48.714;9.414;2024-03-25T07:40:25;5.80;;;3.33;;
41263;SDS011;26998;48.714;9.414;2024-03-25T07:42:51;5.30;;;3.38;;
41263;SDS011;26998;48.714;9.414;2024-03-25T07:45:16;6.97;;;3.07;;
41263;SDS011;26998;48.714;9.414;2024-03-25T07:47:43;6.57;;;3.30;;
41263;SDS011;26998;48.714;9.414;2024-03-25T07:50:10;4.15;;;3.00;;
41263;SDS011;26998;48.714;9.414;2024-03-25T07:52:36;5.75;;;3.72;;
41263;SDS011;26998;48.714;9.414;2024-03-25T07:55:06;5.68;;;3.17;;
41263;SDS011;26998;48.714;9.414;2024-03-25T07:57:38;6.45;;;3.40;;
41263;SDS011;26998;48.714;9.414;2024-03-25T08:00:04;5.47;;;3.45;;
41263;SDS011;26998;48.714;9.414;2024-03-25T08:02:31;6.78;;;3.50;;
41263;SDS011;26998;48.714;9.414;2024-03-25T08:04:56;4.67;;;3.00;;
41263;SDS011;26998;48.714;9.414;2024-03-25T08:07:22;6.53;;;3.45;;
41263;SDS011;26998;48.714;9.414;2024-03-25T08:09:48;4.93;;;3.00;;
41263;SDS011;26998;48.714;9.414;2024-03-25T08:12:14;6.73;;;3.40;;
41263;SDS011;26998;48.714;9.414;2024-03-25T08:14:40;8.10;;;3.93;;
41263;SDS011;26998;48.714;9.414;2024-03-25T08:17:08;11.97;;;7.03;;
41263;SDS011;26998;48.714;9.414;2024-03-25T08:19:34;10.10;;;5.85;;
41263;SDS011;26998;48.714;9.414;2024-03-25T08:22:00;13.57;;;8.60;;
41263;SDS011;26998;48.714;9.414;2024-03-25T08:24:26;10.93;;;6.53;;
41263;SDS011;26998;48.714;9.414;2024-03-25T08:26:52;7.57;;;5.32;;
41263;SDS011;26998;48.714;9.414;2024-03-25T08:29:20;8.83;;;5.30;;
41263;SDS011;26998;48.714;9.414;2024-03-25T08:31:47;8.35;;;5.03;;
41263;SDS011;26998;48.714;9.414;2024-03-25T08:34:12;8.00;;;4.90;;
41263;SDS011;26998;48.714;9.414;2024-03-25T08:36:38;7.93;;;4.80;;
41263;SDS011;26998;48.714;9.414;2024-03-25T08:39:05;7.60;;;4.60;;
41263;SDS011;26998;48.714;9.414;2024-03-25T08:41:31;8.95;;;5.28;;
41263;SDS011;26998;48.714;9.414;2024-03-25T08:43:59;10.90;;;5.32;;
41263;SDS011;26998;48.714;9.414;2024-03-25T08:46:27;11.00;;;4.88;;
41263;SDS011;26998;48.714;9.414;2024-03-25T08:48:53;9.93;;;6.10;;
41263;SDS011;26998;48.714;9.414;2024-03-25T08:51:19;8.25;;;4.88;;
41263;SDS011;26998;48.714;9.414;2024-03-25T08:53:45;9.63;;;4.87;;
41263;SDS011;26998;48.714;9.414;2024-03-25T08:56:10;7.82;;;4.88;;
41263;SDS011;26998;48.714;9.414;2024-03-25T08:58:37;6.40;;;3.72;;
41263;SDS011;26998;48.714;9.414;2024-03-25T09:01:03;11.45;;;4.05;;
41263;SDS011;26998;48.714;9.414;2024-03-25T09:03:29;5.73;;;3.47;;
41263;SDS011;26998;48.714;9.414;2024-03-25T09:05:55;9.02;;;3.58;;
41263;SDS011;26998;48.714;9.414;2024-03-25T09:08:21;5.05;;;3.25;;
41263;SDS011;26998;48.714;9.414;2024-03-25T09:10:47;8.00;;;3.47;;
41263;SDS011;26998;48.714;9.414;2024-03-25T09:13:31;8.23;;;3.38;;
41263;SDS011;26998;48.714;9.414;2024-03-25T09:15:57;5.80;;;2.90;;
41263;SDS011;26998;48.714;9.414;2024-03-25T09:18:24;4.82;;;2.80;;
41263;SDS011;26998;48.714;9.414;2024-03-25T09:20:50;8.38;;;3.15;;
41263;SDS011;26998;48.714;9.414;2024-03-25T09:23:16;5.65;;;2.85;;
41263;SDS011;26998;48.714;9.414;2024-03-25T09:25:54;5.80;;;2.95;;
41263;SDS011;26998;48.714;9.414;2024-03-25T09:28:20;6.35;;;3.10;;
41263;SDS011;26998;48.714;9.414;2024-03-25T09:30:47;6.27;;;3.90;;
41263;SDS011;26998;48.714;9.414;2024-03-25T09:33:14;7.28;;;3.30;;
41263;SDS011;26998;48.714;9.414;2024-03-25T09:35:40;6.10;;;3.50;;
41263;SDS011;26998;48.714;9.414;2024-03-25T09:38:06;6.80;;;3.55;;
41263;SDS011;26998;48.714;9.414;2024-03-25T09:40:36;4.47;;;3.08;;
41263;SDS011;26998;48.714;9.414;2024-03-25T09:43:06;6.40;;;2.97;;
41263;SDS011;26998;48.714;9.414;2024-03-25T09:45:42;5.43;;;3.17;;
41263;SDS011;26998;48.714;9.414;2024-03-25T09:48:21;5.80;;;3.20;;
41263;SDS011;26998;48.714;9.414;2024-03-25T09:50:47;4.40;;;2.58;;
41263;SDS011;26998;48.714;9.414;2024-03-25T09:53:14;5.07;;;2.60;;
41263;SDS011;26998;48.714;9.414;2024-03-25T09:55:40;5.27;;;2.90;;
41263;SDS011;26998;48.714;9.414;2024-03-25T09:58:05;4.53;;;2.43;;
41263;SDS011;26998;48.714;9.414;2024-03-25T10:00:33;3.83;;;2.13;;
41263;SDS011;26998;48.714;9.414;2024-03-25T10:02:58;4.53;;;2.57;;
41263;SDS011;26998;48.714;9.414;2024-03-25T10:05:24;6.15;;;2.97;;
41263;SDS011;26998;48.714;9.414;2024-03-25T10:07:50;6.60;;;3.03;;
41263;SDS011;26998;48.714;9.414;2024-03-25T10:10:20;3.80;;;2.40;;
41263;SDS011;26998;48.714;9.414;2024-03-25T10:12:45;4.95;;;2.58;;
41263;SDS011;26998;48.714;9.414;2024-03-25T10:15:15;4.40;;;2.20;;
41263;SDS011;26998;48.714;9.414;2024-03-25T10:17:42;3.83;;;2.40;;
41263;SDS011;26998;48.714;9.414;2024-03-25T10:20:15;4.32;;;2.55;;
41263;SDS011;26998;48.714;9.414;2024-03-25T10:22:44;4.35;;;2.45;;
41263;SDS011;26998;48.714;9.414;2024-03-25T10:27:53;3.60;;;2.30;;
41263;SDS011;26998;48.714;9.414;2024-03-25T10:30:19;3.45;;;2.22;;
41263;SDS011;26998;48.714;9.414;2024-03-25T10:32:45;3.97;;;2.27;;
41263;SDS011;26998;48.714;9.414;2024-03-25T10:35:12;3.67;;;2.00;;
41263;SDS011;26998;48.714;9.414;2024-03-25T10:37:38;4.10;;;2.70;;
41263;SDS011;26998;48.714;9.414;2024-03-25T10:40:05;3.40;;;2.27;;
41263;SDS011;26998;48.714;9.414;2024-03-25T10:42:37;5.45;;;2.50;;
41263;SDS011;26998;48.714;9.414;2024-03-25T10:45:05;7.47;;;2.90;;
41263;SDS011;26998;48.714;9.414;2024-03-25T10:47:34;5.38;;;3.05;;
41263;SDS011;26998;48.714;9.414;2024-03-25T10:50:03;4.22;;;2.78;;
41263;SDS011;26998;48.714;9.414;2024-03-25T10:52:35;5.27;;;2.20;;
41263;SDS011;26998;48.714;9.414;2024-03-25T10:55:02;2.75;;;1.90;;
41263;SDS011;26998;48.714;9.414;2024-03-25T10:57:29;4.18;;;2.40;;
41263;SDS011;26998;48.714;9.414;2024-03-25T10:59:56;3.97;;;2.60;;
41263;SDS011;26998;48.714;9.414;2024-03-25T11:02:23;6.07;;;2.92;;
41263;SDS011;26998;48.714;9.414;2024-03-25T11:04:51;4.05;;;2.55;;
41263;SDS011;26998;48.714;9.414;2024-03-25T11:07:32;3.33;;;2.53;;
41263;SDS011;26998;48.714;9.414;2024-03-25T11:10:09;3.60;;;2.20;;
41263;SDS011;26998;48.714;9.414;2024-03-25T11:12:57;5.10;;;2.85;;
41263;SDS011;26998;48.714;9.414;2024-03-25T11:15:35;4.63;;;2.75;;
41263;SDS011;26998;48.714;9.414;2024-03-25T11:18:03;4.20;;;2.20;;
41263;SDS011;26998;48.714;9.414;2024-03-25T11:20:31;5.45;;;2.85;;
41263;SDS011;26998;48.714;9.414;2024-03-25T11:23:10;6.13;;;2.47;;
41263;SDS011;26998;48.714;9.414;2024-03-25T11:25:45;3.50;;;2.08;;
41263;SDS011;26998;48.714;9.414;2024-03-25T11:28:29;4.65;;;2.15;;
41263;SDS011;26998;48.714;9.414;2024-03-25T11:30:58;3.25;;;1.95;;
41263;SDS011;26998;48.714;9.414;2024-03-25T11:33:24;3.80;;;2.30;;
41263;SDS011;26998;48.714;9.414;2024-03-25T11:35:50;3.63;;;2.10;;
41263;SDS011;26998;48.714;9.414;2024-03-25T11:38:16;2.63;;;2.08;;
41263;SDS011;26998;48.714;9.414;2024-03-25T11:40:42;4.30;;;2.30;;
41263;SDS011;26998;48.714;9.414;2024-03-25T11:43:17;3.67;;;2.17;;
41263;SDS011;26998;48.714;9.414;2024-03-25T11:45:43;4.15;;;2.15;;
41263;SDS011;26998;48.714;9.414;2024-03-25T11:48:09;2.60;;;1.80;;
41263;SDS011;26998;48.714;9.414;2024-03-25T11:50:35;2.17;;;1.70;;
41263;SDS011;26998;48.714;9.414;2024-03-25T11:53:03;3.60;;;1.92;;
41263;SDS011;26998;48.714;9.414;2024-03-25T11:55:30;2.95;;;2.10;;
41263;SDS011;26998;48.714;9.414;2024-03-25T11:57:56;2.77;;;1.77;;
41263;SDS011;26998;48.714;9.414;2024-03-25T12:00:23;3.55;;;2.25;;
41263;SDS011;26998;48.714;9.414;2024-03-25T12:02:49;2.72;;;1.90;;
41263;SDS011;26998;48.714;9.414;2024-03-25T12:05:16;2.60;;;1.60;;
41263;SDS011;26998;48.714;9.414;2024-03-25T12:07:42;3.58;;;2.42;;
41263;SDS011;26998;48.714;9.414;2024-03-25T12:10:08;3.57;;;1.70;;
41263;SDS011;26998;48.714;9.414;2024-03-25T12:12:53;3.97;;;1.60;;
41263;SDS011;26998;48.714;9.414;2024-03-25T12:15:19;4.05;;;2.40;;
41263;SDS011;26998;48.714;9.414;2024-03-25T12:17:45;2.70;;;1.63;;
41263;SDS011;26998;48.714;9.414;2024-03-25T12:20:12;3.15;;;1.77;;
41263;SDS011;26998;48.714;9.414;2024-03-25T12:22:40;3.38;;;2.20;;
41263;SDS011;26998;48.714;9.414;2024-03-25T12:25:07;3.75;;;1.80;;
41263;SDS011;26998;48.714;9.414;2024-03-25T12:27:35;4.25;;;2.08;;
41263;SDS011;26998;48.714;9.414;2024-03-25T12:30:08;4.15;;;2.30;;
41263;SDS011;26998;48.714;9.414;2024-03-25T12:32:42;6.55;;;2.30;;
41263;SDS011;26998;48.714;9.414;2024-03-25T12:35:09;2.80;;;1.70;;
41263;SDS011;26998;48.714;9.414;2024-03-25T12:37:42;5.25;;;2.20;;
41263;SDS011;26998;48.714;9.414;2024-03-25T12:40:12;3.10;;;2.05;;
41263;SDS011;26998;48.714;9.414;2024-03-25T12:42:41;3.47;;;2.10;;
41263;SDS011;26998;48.714;9.414;2024-03-25T12:45:10;3.17;;;2.00;;
41263;SDS011;26998;48.714;9.414;2024-03-25T12:47:39;3.90;;;2.05;;
41263;SDS011;26998;48.714;9.414;2024-03-25T12:50:05;3.67;;;2.00;;
41263;SDS011;26998;48.714;9.414;2024-03-25T12:52:32;4.18;;;2.38;;
41263;SDS011;26998;48.714;9.414;2024-03-25T12:55:02;4.20;;;2.00;;
41263;SDS011;26998;48.714;9.414;2024-03-25T12:57:31;4.47;;;2.10;;
41263;SDS011;26998;48.714;9.414;2024-03-25T12:59:58;4.22;;;2.50;;
41263;SDS011;26998;48.714;9.414;2024-03-25T13:02:24;3.03;;;1.90;;
41263;SDS011;26998;48.714;9.414;2024-03-25T13:04:51;3.40;;;2.05;;
41263;SDS011;26998;48.714;9.414;2024-03-25T13:07:17;5.38;;;1.95;;
41263;SDS011;26998;48.714;9.414;2024-03-25T13:09:44;3.45;;;1.90;;
41263;SDS011;26998;48.714;9.414;2024-03-25T13:12:10;3.95;;;2.40;;
41263;SDS011;26998;48.714;9.414;2024-03-25T13:14:36;4.38;;;2.30;;
41263;SDS011;26998;48.714;9.414;2024-03-25T13:17:04;2.92;;;2.42;;
41263;SDS011;26998;48.714;9.414;2024-03-25T13:19:31;3.42;;;2.00;;
41263;SDS011;26998;48.714;9.414;2024-03-25T13:21:57;4.13;;;2.33;;
41263;SDS011;26998;48.714;9.414;2024-03-25T13:24:23;3.05;;;2.05;;
41263;SDS011;26998;48.714;9.414;2024-03-25T13:26:51;3.05;;;2.13;;
41263;SDS011;26998;48.714;9.414;2024-03-25T13:29:19;6.53;;;1.80;;
41263;SDS011;26998;48.714;9.414;2024-03-25T13:31:46;5.37;;;2.40;;
41263;SDS011;26998;48.714;9.414;2024-03-25T13:34:13;7.43;;;2.25;;
41263;SDS011;26998;48.714;9.414;2024-03-25T13:36:38;4.57;;;2.03;;
41263;SDS011;26998;48.714;9.414;2024-03-25T13:39:05;3.47;;;2.30;;
41263;SDS011;26998;48.714;9.414;2024-03-25T13:41:32;3.95;;;1.98;;
41263;SDS011;26998;48.714;9.414;2024-03-25T13:43:58;3.58;;;2.30;;
41263;SDS011;26998;48.714;9.414;2024-03-25T13:46:24;2.63;;;2.13;;
41263;SDS011;26998;48.714;9.414;2024-03-25T13:48:53;4.97;;;2.10;;
41263;SDS011;26998;48.714;9.414;2024-03-25T13:51:21;3.38;;;2.25;;
41263;SDS011;26998;48.714;9.414;2024-03-25T13:53:50;4.43;;;2.10;;
41263;SDS011;26998;48.714;9.414;2024-03-25T13:56:15;3.70;;;1.90;;
41263;SDS011;26998;48.714;9.414;2024-03-25T13:58:41;4.40;;;2.00;;
41263;SDS011;26998;48.714;9.414;2024-03-25T14:01:07;3.63;;;2.05;;
41263;SDS011;26998;48.714;9.414;2024-03-25T14:03:36;3.42;;;1.90;;
41263;SDS011;26998;48.714;9.414;2024-03-25T14:06:01;3.67;;;2.10;;
41263;SDS011;26998;48.714;9.414;2024-03-25T14:08:31;2.83;;;2.08;;
41263;SDS011;26998;48.714;9.414;2024-03-25T14:10:59;4.70;;;2.33;;
41263;SDS011;26998;48.714;9.414;2024-03-25T14:13:27;3.78;;;2.08;;
41263;SDS011;26998;48.714;9.414;2024-03-25T14:15:52;5.40;;;2.10;;
41263;SDS011;26998;48.714;9.414;2024-03-25T14:18:21;2.70;;;1.87;;
41263;SDS011;26998;48.714;9.414;2024-03-25T14:20:49;1.95;;;1.75;;
41263;SDS011;26998;48.714;9.414;2024-03-25T14:23:17;5.15;;;1.98;;
41263;SDS011;26998;48.714;9.414;2024-03-25T14:25:43;2.83;;;2.30;;
41263;SDS011;26998;48.714;9.414;2024-03-25T14:28:09;3.05;;;2.03;;
41263;SDS011;26998;48.714;9.414;2024-03-25T14:30:35;2.97;;;1.88;;
41263;SDS011;26998;48.714;9.414;2024-03-25T14:33:01;5.55;;;2.00;;
41263;SDS011;26998;48.714;9.414;2024-03-25T14:35:30;3.95;;;2.40;;
41263;SDS011;26998;48.714;9.414;2024-03-25T14:37:56;3.55;;;2.70;;
41263;SDS011;26998;48.714;9.414;2024-03-25T14:40:21;3.00;;;2.25;;
41263;SDS011;26998;48.714;9.414;2024-03-25T14:42:47;4.60;;;2.60;;
41263;SDS011;26998;48.714;9.414;2024-03-25T14:45:14;3.88;;;1.88;;
41263;SDS011;26998;48.714;9.414;2024-03-25T14:47:40;3.63;;;2.22;;
41263;SDS011;26998;48.714;9.414;2024-03-25T14:50:07;3.70;;;2.05;;